Time;durP1;ratioP1;P1;durP2;ratioP2;P2;SDS_P1;SDS_P2;PMS_P1;PMS_P2;Temp;Humidity;BMP_temperature;BMP_pressure;BME280_temperature;BME280_humidity;BME280_pressure;Samples;Min_cycle;Max_cycle;Signal;HPM_P1;HPM_P2
2024/03/18 00:00:59;;;;;;;;;21.33;20.00;;;;;;;;5022243;28;45354;-77
2024/03/18 00:03:27;;;;;;;;;25.33;24.00;;;;;;;;5004274;28;47038;-77
2024/03/18 00:05:52;;;;;;;;;22.67;21.00;;;;;;;;5022170;28;45368;-77
2024/03/18 00:08:17;;;;;;;;;23.33;22.00;;;;;;;;5004003;28;45663;-77
2024/03/18 00:10:42;;;;;;;;;22.67;21.67;;;;;;;;5022172;28;45311;-77
2024/03/18 00:13:07;;;;;;;;;20.67;20.00;;;;;;;;5021921;28;45401;-77
2024/03/18 00:15:33;;;;;;;;;20.00;20.00;;;;;;;;5003904;28;47214;-77
2024/03/18 00:17:58;;;;;;;;;20.33;19.67;;;;;;;;5022156;28;45318;-77
2024/03/18 00:20:23;;;;;;;;;25.33;24.00;;;;;;;;5022022;28;45422;-77
2024/03/18 00:22:49;;;;;;;;;26.33;25.00;;;;;;;;5021909;28;45438;-77
2024/03/18 00:25:15;;;;;;;;;25.67;22.67;;;;;;;;5003682;28;46032;-77
2024/03/18 00:27:40;;;;;;;;;25.00;21.67;;;;;;;;5021937;28;45213;-76
2024/03/18 00:30:06;;;;;;;;;28.67;25.67;;;;;;;;5021869;28;45246;-77
2024/03/18 00:32:33;;;;;;;;;25.67;21.00;;;;;;;;5021499;28;45468;-77
2024/03/18 00:34:58;;;;;;;;;23.33;21.67;;;;;;;;5021636;28;45290;-78
2024/03/18 00:37:23;;;;;;;;;26.33;25.67;;;;;;;;5003822;28;45946;-77
2024/03/18 00:39:49;;;;;;;;;25.00;24.00;;;;;;;;5021931;28;45218;-77
2024/03/18 00:42:14;;;;;;;;;25.33;25.33;;;;;;;;5021709;28;45451;-77
2024/03/18 00:44:39;;;;;;;;;27.67;26.33;;;;;;;;5021373;28;45290;-77
2024/03/18 00:47:05;;;;;;;;;24.67;24.33;;;;;;;;5021582;28;45388;-77
2024/03/18 00:49:30;;;;;;;;;27.00;25.00;;;;;;;;5021626;28;45348;-77
2024/03/18 00:51:55;;;;;;;;;22.33;22.00;;;;;;;;5021528;28;45368;-76
2024/03/18 00:54:21;;;;;;;;;24.33;24.33;;;;;;;;5021253;28;45332;-77
2024/03/18 00:56:46;;;;;;;;;24.00;22.33;;;;;;;;5000606;28;46472;-77
2024/03/18 00:59:11;;;;;;;;;24.33;22.33;;;;;;;;5001842;28;45372;-77
2024/03/18 01:01:37;;;;;;;;;26.00;26.00;;;;;;;;5001286;28;45278;-77
2024/03/18 01:04:04;;;;;;;;;23.33;23.00;;;;;;;;4983657;28;48054;-78
2024/03/18 01:06:29;;;;;;;;;23.33;22.00;;;;;;;;5000999;28;45352;-77
2024/03/18 01:08:54;;;;;;;;;19.33;19.33;;;;;;;;5000514;28;45483;-76
2024/03/18 01:11:20;;;;;;;;;19.00;18.00;;;;;;;;4983453;28;46024;-77
2024/03/18 01:13:48;;;;;;;;;17.33;17.33;;;;;;;;5000842;28;45415;-77
2024/03/18 01:16:21;;;;;;;;;18.67;17.00;;;;;;;;4983308;28;45406;-78
2024/03/18 01:18:47;;;;;;;;;19.00;18.00;;;;;;;;4983311;28;45298;-77
2024/03/18 01:21:13;;;;;;;;;24.00;20.67;;;;;;;;5000952;28;45310;-77
2024/03/18 01:23:38;;;;;;;;;16.67;16.67;;;;;;;;5001099;28;45845;-77
2024/03/18 01:26:03;;;;;;;;;19.00;19.00;;;;;;;;5001118;28;45219;-77
2024/03/18 01:28:29;;;;;;;;;20.67;20.33;;;;;;;;5001110;28;45407;-77
2024/03/18 01:30:54;;;;;;;;;15.67;15.33;;;;;;;;5000829;28;45337;-77
2024/03/18 01:33:19;;;;;;;;;18.33;18.33;;;;;;;;5000794;28;45336;-77
2024/03/18 01:35:46;;;;;;;;;18.33;16.67;;;;;;;;5001057;28;45190;-78
2024/03/18 01:38:11;;;;;;;;;21.33;20.33;;;;;;;;4982827;28;45479;-77
2024/03/18 01:40:36;;;;;;;;;20.00;19.33;;;;;;;;4999344;28;45365;-77
2024/03/18 01:43:01;;;;;;;;;18.00;18.00;;;;;;;;5000558;28;46204;-77
2024/03/18 01:45:26;;;;;;;;;18.33;18.00;;;;;;;;5000781;28;45394;-77
2024/03/18 01:47:52;;;;;;;;;18.00;15.00;;;;;;;;4983294;28;45585;-77
2024/03/18 01:50:17;;;;;;;;;20.67;20.67;;;;;;;;5000633;28;45443;-77
2024/03/18 01:52:43;;;;;;;;;16.33;16.00;;;;;;;;4982956;28;47408;-77
2024/03/18 01:55:09;;;;;;;;;18.00;18.00;;;;;;;;5000717;28;45314;-77
2024/03/18 01:57:34;;;;;;;;;19.00;18.67;;;;;;;;5010145;28;45309;-77
2024/03/18 01:59:59;;;;;;;;;26.33;25.00;;;;;;;;5020250;28;45253;-76
2024/03/18 02:02:26;;;;;;;;;18.67;18.67;;;;;;;;5002395;28;48431;-77
2024/03/18 02:04:51;;;;;;;;;23.00;22.00;;;;;;;;5020183;28;45268;-77
2024/03/18 02:07:19;;;;;;;;;19.33;19.33;;;;;;;;5020401;28;45269;-77
2024/03/18 02:09:44;;;;;;;;;24.00;23.67;;;;;;;;5020234;28;45352;-77
2024/03/18 02:12:11;;;;;;;;;19.00;18.33;;;;;;;;5019203;28;45463;-78
2024/03/18 02:14:36;;;;;;;;;17.67;17.00;;;;;;;;5018306;28;45356;-76
2024/03/18 02:17:01;;;;;;;;;20.00;19.67;;;;;;;;5000682;28;45413;-77
2024/03/18 02:19:26;;;;;;;;;23.67;21.67;;;;;;;;5020013;28;45269;-77
2024/03/18 02:21:51;;;;;;;;;21.67;19.00;;;;;;;;5019916;28;45348;-77
2024/03/18 02:24:20;;;;;;;;;21.33;21.00;;;;;;;;5019977;28;45320;-77
2024/03/18 02:26:45;;;;;;;;;20.00;20.00;;;;;;;;5002063;28;45310;-77
2024/03/18 02:29:10;;;;;;;;;23.00;22.00;;;;;;;;5019783;28;45502;-77
2024/03/18 02:31:35;;;;;;;;;26.33;24.33;;;;;;;;5019918;28;45402;-77
2024/03/18 02:34:00;;;;;;;;;23.00;21.00;;;;;;;;5001991;28;45305;-77
2024/03/18 02:36:25;;;;;;;;;22.00;18.33;;;;;;;;5020131;28;45317;-76
2024/03/18 02:38:52;;;;;;;;;16.00;14.67;;;;;;;;5019831;28;45536;-77
2024/03/18 02:41:17;;;;;;;;;20.67;18.67;;;;;;;;5019842;28;45308;-78
2024/03/18 02:43:42;;;;;;;;;17.00;16.33;;;;;;;;5019850;28;45302;-77
2024/03/18 02:46:08;;;;;;;;;22.33;20.00;;;;;;;;5019632;28;45594;-77
2024/03/18 02:48:33;;;;;;;;;19.67;19.67;;;;;;;;4984260;28;45959;-77
2024/03/18 02:50:58;;;;;;;;;18.33;18.00;;;;;;;;4981652;28;48163;-77
2024/03/18 02:53:23;;;;;;;;;21.00;20.00;;;;;;;;4998850;28;45412;-77
2024/03/18 02:55:48;;;;;;;;;22.33;21.67;;;;;;;;4982021;28;45343;-77
2024/03/18 02:58:14;;;;;;;;;18.33;17.67;;;;;;;;4996437;28;46148;-77
2024/03/18 03:00:39;;;;;;;;;20.67;19.00;;;;;;;;5018345;28;45435;-77
2024/03/18 03:03:04;;;;;;;;;19.67;17.67;;;;;;;;5019299;28;45250;-77
2024/03/18 03:05:29;;;;;;;;;20.67;20.67;;;;;;;;5001577;28;45392;-76
2024/03/18 03:07:54;;;;;;;;;21.33;20.33;;;;;;;;5019321;28;45311;-77
2024/03/18 03:10:20;;;;;;;;;22.67;22.67;;;;;;;;5019188;28;45363;-77
2024/03/18 03:12:45;;;;;;;;;25.00;23.67;;;;;;;;5019539;28;45338;-77
2024/03/18 03:15:10;;;;;;;;;33.00;28.67;;;;;;;;5019396;28;45388;-77
2024/03/18 03:17:35;;;;;;;;;22.33;22.33;;;;;;;;5019311;28;45360;-77
2024/03/18 03:20:01;;;;;;;;;21.67;20.67;;;;;;;;5001347;28;46095;-77
2024/03/18 03:22:26;;;;;;;;;24.33;22.00;;;;;;;;5001399;28;45267;-76
2024/03/18 03:24:51;;;;;;;;;21.00;18.00;;;;;;;;5019320;28;45393;-77
2024/03/18 03:27:16;;;;;;;;;23.33;20.33;;;;;;;;5019110;28;45348;-77
2024/03/18 03:29:42;;;;;;;;;18.67;18.67;;;;;;;;5018832;28;46742;-77
2024/03/18 03:32:10;;;;;;;;;21.00;20.00;;;;;;;;5019484;28;45319;-77
2024/03/18 03:34:37;;;;;;;;;24.67;22.33;;;;;;;;5022719;28;45422;-76
2024/03/18 03:37:02;;;;;;;;;20.67;19.67;;;;;;;;5021501;28;45372;-77
2024/03/18 03:39:27;;;;;;;;;21.67;21.00;;;;;;;;5022567;28;45360;-77
2024/03/18 03:41:52;;;;;;;;;20.33;20.33;;;;;;;;5022603;28;45268;-77
2024/03/18 03:44:17;;;;;;;;;21.00;20.33;;;;;;;;5022574;28;45405;-77
2024/03/18 03:46:43;;;;;;;;;20.33;20.33;;;;;;;;5022376;28;45427;-77
2024/03/18 03:49:08;;;;;;;;;23.00;20.33;;;;;;;;5004443;28;48019;-77
2024/03/18 03:51:33;;;;;;;;;20.00;19.33;;;;;;;;5022508;28;45357;-76
2024/03/18 03:53:59;;;;;;;;;18.33;18.33;;;;;;;;5022350;28;45349;-77
2024/03/18 03:56:24;;;;;;;;;22.00;20.33;;;;;;;;5022433;28;45462;-76
2024/03/18 03:58:51;;;;;;;;;20.33;18.67;;;;;;;;5001760;28;45337;-77
2024/03/18 04:01:18;;;;;;;;;23.00;22.00;;;;;;;;5001982;28;45369;-76
2024/03/18 04:03:43;;;;;;;;;21.00;21.00;;;;;;;;5001432;28;45369;-77
2024/03/18 04:06:08;;;;;;;;;24.00;23.00;;;;;;;;5001987;28;45312;-77
2024/03/18 04:08:33;;;;;;;;;27.00;26.67;;;;;;;;5002288;28;46310;-77
2024/03/18 04:10:58;;;;;;;;;22.00;21.67;;;;;;;;5002101;28;45322;-77
2024/03/18 04:13:24;;;;;;;;;25.00;21.33;;;;;;;;5002434;28;45271;-77
2024/03/18 04:15:49;;;;;;;;;24.00;24.00;;;;;;;;4983878;28;46020;-76
2024/03/18 04:18:16;;;;;;;;;21.33;21.00;;;;;;;;5002059;28;45821;-77
2024/03/18 04:20:42;;;;;;;;;25.00;23.00;;;;;;;;4984264;28;45266;-77
2024/03/18 04:23:10;;;;;;;;;26.33;24.33;;;;;;;;4984466;28;45436;-77
2024/03/18 04:25:35;;;;;;;;;27.67;25.00;;;;;;;;4984288;28;46220;-77
2024/03/18 04:28:07;;;;;;;;;24.33;22.67;;;;;;;;5001757;28;45334;-77
2024/03/18 04:30:32;;;;;;;;;25.00;25.00;;;;;;;;5001812;28;45315;-77
2024/03/18 04:32:57;;;;;;;;;28.00;27.67;;;;;;;;5001880;28;45269;-77
2024/03/18 04:35:22;;;;;;;;;27.00;27.00;;;;;;;;5001690;28;45319;-77
2024/03/18 04:37:55;;;;;;;;;33.33;31.33;;;;;;;;4984103;28;48017;-77
2024/03/18 04:40:23;;;;;;;;;29.00;26.67;;;;;;;;5002033;28;45670;-77
2024/03/18 04:42:49;;;;;;;;;29.67;26.67;;;;;;;;5001834;28;45456;-77
2024/03/18 04:45:15;;;;;;;;;31.33;29.00;;;;;;;;5000301;28;45447;-77
2024/03/18 04:47:41;;;;;;;;;29.67;29.00;;;;;;;;5001702;28;45310;-77
2024/03/18 04:50:08;;;;;;;;;31.67;29.00;;;;;;;;5001660;28;45361;-77
2024/03/18 04:52:33;;;;;;;;;26.67;24.33;;;;;;;;4984040;28;45290;-77
2024/03/18 04:54:58;;;;;;;;;28.33;27.00;;;;;;;;5001407;28;45356;-77
2024/03/18 04:57:23;;;;;;;;;28.33;28.00;;;;;;;;5009457;28;45522;-77
2024/03/18 04:59:49;;;;;;;;;26.67;26.67;;;;;;;;5021326;28;45339;-77
2024/03/18 05:02:14;;;;;;;;;29.67;27.33;;;;;;;;5003780;28;45337;-77
2024/03/18 05:04:39;;;;;;;;;28.67;27.33;;;;;;;;5021200;28;45348;-77
2024/03/18 05:07:04;;;;;;;;;25.67;23.67;;;;;;;;5021242;28;45257;-77
2024/03/18 05:09:30;;;;;;;;;23.67;22.33;;;;;;;;5021276;28;45353;-77
2024/03/18 05:11:55;;;;;;;;;23.67;22.67;;;;;;;;5021153;28;45301;-77
2024/03/18 05:14:20;;;;;;;;;24.67;22.67;;;;;;;;5021067;28;45282;-77
2024/03/18 05:16:45;;;;;;;;;19.33;19.33;;;;;;;;5021206;28;46643;-77
2024/03/18 05:19:10;;;;;;;;;19.67;19.67;;;;;;;;5021170;28;45338;-77
2024/03/18 05:21:35;;;;;;;;;20.33;19.33;;;;;;;;5021349;28;45349;-77
2024/03/18 05:24:01;;;;;;;;;25.00;25.00;;;;;;;;5021148;28;45308;-77
2024/03/18 05:26:26;;;;;;;;;29.33;26.00;;;;;;;;5003126;28;48338;-77
2024/03/18 05:28:51;;;;;;;;;28.00;26.33;;;;;;;;5003122;28;45500;-77
2024/03/18 05:31:16;;;;;;;;;26.00;25.33;;;;;;;;5020445;28;45225;-77
2024/03/18 05:33:41;;;;;;;;;27.33;26.00;;;;;;;;5002694;28;46476;-76
2024/03/18 05:36:07;;;;;;;;;26.67;25.00;;;;;;;;5020647;28;45215;-77
2024/03/18 05:38:32;;;;;;;;;26.00;24.67;;;;;;;;5015684;28;45342;-77
2024/03/18 05:40:59;;;;;;;;;21.33;21.33;;;;;;;;5001142;28;45312;-77
2024/03/18 05:43:24;;;;;;;;;28.00;26.67;;;;;;;;4982939;28;47198;-77
2024/03/18 05:45:49;;;;;;;;;26.33;23.33;;;;;;;;4982626;28;48619;-77
2024/03/18 05:48:14;;;;;;;;;30.33;26.67;;;;;;;;5000422;28;45212;-77
2024/03/18 05:50:39;;;;;;;;;27.00;26.67;;;;;;;;5000632;28;45395;-77
2024/03/18 05:53:04;;;;;;;;;29.33;27.67;;;;;;;;5000400;28;45396;-78
2024/03/18 05:55:30;;;;;;;;;25.33;24.33;;;;;;;;4999466;28;45375;-78
2024/03/18 05:57:57;;;;;;;;;28.67;28.67;;;;;;;;5012875;28;45383;-77
2024/03/18 06:00:23;;;;;;;;;26.00;23.00;;;;;;;;5020410;28;45312;-77
2024/03/18 06:02:48;;;;;;;;;26.33;25.67;;;;;;;;5020203;28;45324;-77
2024/03/18 06:05:13;;;;;;;;;27.67;27.67;;;;;;;;5013470;28;46022;-77
2024/03/18 06:07:39;;;;;;;;;33.00;29.00;;;;;;;;5000494;28;45364;-76
2024/03/18 06:10:04;;;;;;;;;30.33;28.67;;;;;;;;5000439;28;45237;-77
2024/03/18 06:12:30;;;;;;;;;25.33;24.00;;;;;;;;5000472;28;45305;-77
2024/03/18 06:14:55;;;;;;;;;29.33;28.00;;;;;;;;4982347;28;47910;-81
2024/03/18 06:17:20;;;;;;;;;30.33;26.67;;;;;;;;4981852;28;45358;-77
2024/03/18 06:19:45;;;;;;;;;26.33;25.33;;;;;;;;5000160;28;45225;-78
2024/03/18 06:22:20;;;;;;;;;24.67;24.67;;;;;;;;5000924;28;45428;-78
2024/03/18 06:27:29;;;;;;;;;30.67;28.67;;;;;;;;5000198;28;45392;-78
2024/03/18 06:29:54;;;;;;;;;25.33;25.00;;;;;;;;5000139;28;45297;-77
2024/03/18 06:32:19;;;;;;;;;25.67;24.67;;;;;;;;4983962;28;46106;-78
2024/03/18 06:34:44;;;;;;;;;34.33;27.00;;;;;;;;5000205;28;46592;-78
2024/03/18 06:37:10;;;;;;;;;26.67;23.67;;;;;;;;5000404;28;45521;-78
2024/03/18 06:39:35;;;;;;;;;23.33;22.00;;;;;;;;5000623;28;45575;-78
2024/03/18 06:42:00;;;;;;;;;28.00;25.00;;;;;;;;5000443;28;45369;-78
2024/03/18 06:44:26;;;;;;;;;24.00;24.00;;;;;;;;5000265;28;45396;-78
2024/03/18 06:46:51;;;;;;;;;26.67;25.67;;;;;;;;4998943;28;45506;-78
2024/03/18 06:49:16;;;;;;;;;23.67;23.67;;;;;;;;4982253;28;45335;-78
2024/03/18 06:51:43;;;;;;;;;28.33;28.00;;;;;;;;5000027;28;45499;-78
2024/03/18 06:54:08;;;;;;;;;31.33;29.33;;;;;;;;4982181;28;47359;-78
2024/03/18 06:56:33;;;;;;;;;31.33;28.67;;;;;;;;4983357;28;45670;-78
2024/03/18 06:58:59;;;;;;;;;27.00;25.33;;;;;;;;5019514;28;45247;-78
2024/03/18 07:01:24;;;;;;;;;29.00;25.00;;;;;;;;5019865;28;45329;-79
2024/03/18 07:03:49;;;;;;;;;26.33;26.33;;;;;;;;5020363;28;45447;-78
2024/03/18 07:06:15;;;;;;;;;30.33;28.00;;;;;;;;5001180;28;45377;-78
2024/03/18 07:08:40;;;;;;;;;27.00;24.00;;;;;;;;5019297;28;45281;-77
2024/03/18 07:11:05;;;;;;;;;28.33;27.67;;;;;;;;5001539;28;45559;-77
2024/03/18 07:13:30;;;;;;;;;30.00;28.33;;;;;;;;5019530;28;45970;-78
2024/03/18 07:15:58;;;;;;;;;30.00;28.33;;;;;;;;5019227;28;45347;-78
2024/03/18 07:18:23;;;;;;;;;29.33;25.00;;;;;;;;5001635;28;45427;-78
2024/03/18 07:20:49;;;;;;;;;33.67;29.33;;;;;;;;5019202;28;45271;-78
2024/03/18 07:23:14;;;;;;;;;25.00;23.67;;;;;;;;5019237;28;46095;-77
2024/03/18 07:25:40;;;;;;;;;28.00;28.00;;;;;;;;5019208;28;45337;-77
2024/03/18 07:28:05;;;;;;;;;29.33;28.00;;;;;;;;5019398;28;45248;-78
2024/03/18 07:30:30;;;;;;;;;33.67;31.00;;;;;;;;5018958;28;45174;-77
2024/03/18 07:32:56;;;;;;;;;32.67;29.33;;;;;;;;5018721;28;45342;-79
2024/03/18 07:35:21;;;;;;;;;31.00;29.00;;;;;;;;5001106;28;45962;-78
2024/03/18 07:37:46;;;;;;;;;29.33;27.00;;;;;;;;5019469;28;45157;-77
2024/03/18 07:40:11;;;;;;;;;35.33;30.00;;;;;;;;5019298;28;45233;-77
2024/03/18 07:42:37;;;;;;;;;33.00;29.00;;;;;;;;5000551;28;47173;-77
2024/03/18 07:45:02;;;;;;;;;26.00;25.00;;;;;;;;4999252;28;45413;-77
2024/03/18 07:47:27;;;;;;;;;30.33;28.00;;;;;;;;5017471;28;45428;-77
2024/03/18 07:49:53;;;;;;;;;30.00;29.00;;;;;;;;5018877;28;45294;-77
2024/03/18 07:52:18;;;;;;;;;42.67;36.67;;;;;;;;5016115;28;45496;-77
2024/03/18 07:54:43;;;;;;;;;29.67;28.33;;;;;;;;4998917;28;45308;-77
2024/03/18 07:57:09;;;;;;;;;34.67;31.33;;;;;;;;5005128;28;46011;-77
2024/03/18 07:59:34;;;;;;;;;32.33;30.00;;;;;;;;5018633;28;45505;-78
2024/03/18 08:02:00;;;;;;;;;35.67;31.00;;;;;;;;5019423;28;45321;-77
2024/03/18 08:04:28;;;;;;;;;32.33;30.33;;;;;;;;5019475;28;45235;-77
2024/03/18 08:06:53;;;;;;;;;24.00;23.00;;;;;;;;5006201;28;45290;-80
2024/03/18 08:09:19;;;;;;;;;26.00;26.00;;;;;;;;5022232;28;45436;-81
2024/03/18 08:11:45;;;;;;;;;29.33;26.33;;;;;;;;5020699;28;45471;-81
2024/03/18 08:14:10;;;;;;;;;27.67;27.00;;;;;;;;5001486;28;45396;-79
2024/03/18 08:16:36;;;;;;;;;22.67;21.67;;;;;;;;5016804;28;45654;-79
2024/03/18 08:19:03;;;;;;;;;24.67;24.33;;;;;;;;4983427;28;47339;-80
2024/03/18 08:21:28;;;;;;;;;29.33;25.00;;;;;;;;4986612;28;48017;-79
2024/03/18 08:23:53;;;;;;;;;18.00;18.00;;;;;;;;4985913;28;45726;-80
2024/03/18 08:26:18;;;;;;;;;19.00;19.00;;;;;;;;5003036;28;45338;-80
2024/03/18 08:28:44;;;;;;;;;22.00;20.00;;;;;;;;5002111;28;45274;-80
2024/03/18 08:31:10;;;;;;;;;18.00;18.00;;;;;;;;4984079;28;47348;-79
2024/03/18 08:33:35;;;;;;;;;16.00;14.00;;;;;;;;4987386;28;45245;-79
2024/03/18 08:36:01;;;;;;;;;19.33;17.00;;;;;;;;4987187;28;45274;-80
2024/03/18 08:38:27;;;;;;;;;39.33;33.00;;;;;;;;5004080;28;45377;-81
2024/03/18 08:40:53;;;;;;;;;26.67;25.33;;;;;;;;4986492;28;48107;-81
2024/03/18 08:43:19;;;;;;;;;15.67;15.67;;;;;;;;5002045;28;45341;-79
2024/03/18 08:45:54;;;;;;;;;25.00;21.67;;;;;;;;4988421;28;45652;-79
2024/03/18 08:48:19;;;;;;;;;15.67;14.67;;;;;;;;5011507;28;45654;-80
2024/03/18 08:50:45;;;;;;;;;15.33;14.33;;;;;;;;4984853;28;47119;-80
2024/03/18 08:53:10;;;;;;;;;9.33;8.67;;;;;;;;5000268;28;45581;-79
2024/03/18 08:55:36;;;;;;;;;7.67;7.00;;;;;;;;5002311;28;45487;-82
2024/03/18 08:58:01;;;;;;;;;9.33;9.33;;;;;;;;4972449;28;46422;-80
2024/03/18 09:00:26;;;;;;;;;8.67;8.67;;;;;;;;4982438;28;45400;-81
2024/03/18 09:02:52;;;;;;;;;8.33;8.33;;;;;;;;4997537;28;45349;-80
2024/03/18 09:05:17;;;;;;;;;10.00;8.00;;;;;;;;5002180;28;45267;-79
2024/03/18 09:07:42;;;;;;;;;9.67;9.00;;;;;;;;5001786;28;45296;-80
2024/03/18 09:10:10;;;;;;;;;8.00;8.00;;;;;;;;5001643;28;45346;-80
2024/03/18 09:12:35;;;;;;;;;10.33;10.00;;;;;;;;5002156;28;45303;-81
2024/03/18 09:15:00;;;;;;;;;13.00;12.00;;;;;;;;5004577;28;45427;-79
2024/03/18 09:17:25;;;;;;;;;9.67;9.67;;;;;;;;4986360;28;47368;-79
2024/03/18 09:19:51;;;;;;;;;7.00;7.00;;;;;;;;5004164;28;45523;-81
2024/03/18 09:22:16;;;;;;;;;5.00;5.00;;;;;;;;5003229;28;45372;-79
2024/03/18 09:24:42;;;;;;;;;7.67;6.67;;;;;;;;4985327;28;45291;-79
2024/03/18 09:27:07;;;;;;;;;3.00;2.75;;;;;;;;5003179;28;45377;-81
2024/03/18 09:29:33;;;;;;;;;4.25;2.75;;;;;;;;5001706;28;45344;-81
2024/03/18 09:31:58;;;;;;;;;5.75;4.75;;;;;;;;4984020;28;45395;-81
2024/03/18 09:34:23;;;;;;;;;4.00;4.00;;;;;;;;5003595;28;45327;-81
2024/03/18 09:36:48;;;;;;;;;2.50;2.50;;;;;;;;5004091;28;45431;-81
2024/03/18 09:39:14;;;;;;;;;3.00;3.00;;;;;;;;5003136;28;46583;-80
2024/03/18 09:41:40;;;;;;;;;5.25;4.75;;;;;;;;4985750;28;45269;-81
2024/03/18 09:44:11;;;;;;;;;5.50;3.75;;;;;;;;5003696;28;45313;-81
2024/03/18 09:46:37;;;;;;;;;4.00;4.00;;;;;;;;5003366;28;45318;-81
2024/03/18 09:49:03;;;;;;;;;4.50;3.25;;;;;;;;5004375;28;45798;-80
2024/03/18 09:51:29;;;;;;;;;4.00;4.00;;;;;;;;5004443;28;45361;-81
2024/03/18 09:53:55;;;;;;;;;5.25;3.00;;;;;;;;5002751;28;45539;-81
2024/03/18 09:56:20;;;;;;;;;6.75;4.00;;;;;;;;5004538;28;45380;-81
2024/03/18 09:58:45;;;;;;;;;2.25;2.25;;;;;;;;5023513;28;45814;-81
2024/03/18 10:01:12;;;;;;;;;5.00;5.00;;;;;;;;5002978;28;45495;-81
2024/03/18 10:03:44;;;;;;;;;2.75;2.00;;;;;;;;5004342;28;45344;-80
2024/03/18 10:06:11;;;;;;;;;2.50;2.50;;;;;;;;5018973;28;45373;-80
2024/03/18 10:08:39;;;;;;;;;2.75;2.50;;;;;;;;5003975;28;45440;-81
2024/03/18 10:11:04;;;;;;;;;4.50;3.00;;;;;;;;5002444;28;46512;-79
2024/03/18 10:13:30;;;;;;;;;3.25;3.00;;;;;;;;5001584;28;45486;-80
2024/03/18 10:15:55;;;;;;;;;1.50;1.50;;;;;;;;4986080;28;46161;-81
2024/03/18 10:18:20;;;;;;;;;2.00;2.00;;;;;;;;4983020;28;47462;-81
2024/03/18 10:20:47;;;;;;;;;3.00;3.00;;;;;;;;5002459;28;45226;-80
2024/03/18 10:23:15;;;;;;;;;2.75;2.75;;;;;;;;5001113;28;45333;-81
2024/03/18 10:25:41;;;;;;;;;3.00;2.50;;;;;;;;4985316;28;46081;-80
2024/03/18 10:28:09;;;;;;;;;3.25;3.25;;;;;;;;4985765;28;47266;-81
2024/03/18 10:30:35;;;;;;;;;3.00;3.00;;;;;;;;5002623;28;45305;-80
2024/03/18 10:33:04;;;;;;;;;3.50;3.25;;;;;;;;5000588;28;45427;-80
2024/03/18 10:35:32;;;;;;;;;3.75;3.75;;;;;;;;5000261;28;45424;-80
2024/03/18 10:38:01;;;;;;;;;4.75;4.75;;;;;;;;5001550;28;45216;-81
2024/03/18 10:40:38;;;;;;;;;3.00;3.00;;;;;;;;5003128;28;45393;-80
2024/03/18 10:43:04;;;;;;;;;4.50;4.50;;;;;;;;5001180;28;45368;-81
2024/03/18 10:45:31;;;;;;;;;5.00;5.00;;;;;;;;4999868;28;45684;-80
2024/03/18 10:47:57;;;;;;;;;6.25;4.00;;;;;;;;4997348;28;45497;-81
2024/03/18 10:50:23;;;;;;;;;4.00;3.00;;;;;;;;5001554;28;45412;-80
2024/03/18 10:52:50;;;;;;;;;6.00;4.00;;;;;;;;4999496;28;45347;-80
2024/03/18 10:55:19;;;;;;;;;4.25;4.25;;;;;;;;4998995;28;45430;-80
2024/03/18 10:57:46;;;;;;;;;4.00;3.25;;;;;;;;4985138;28;47209;-83
2024/03/18 11:00:11;;;;;;;;;4.00;4.00;;;;;;;;5001961;28;45356;-82
2024/03/18 11:02:40;;;;;;;;;6.25;4.00;;;;;;;;5000919;28;45272;-80
2024/03/18 11:05:06;;;;;;;;;4.50;3.25;;;;;;;;4999923;28;45221;-80
2024/03/18 11:07:34;;;;;;;;;2.75;2.75;;;;;;;;4999775;28;45371;-80
2024/03/18 11:10:03;;;;;;;;;2.00;2.00;;;;;;;;4999905;28;45428;-79
2024/03/18 11:12:35;;;;;;;;;3.75;2.50;;;;;;;;4982413;28;45338;-80
2024/03/18 11:15:03;;;;;;;;;2.25;1.00;;;;;;;;4999746;28;45415;-80
2024/03/18 11:17:29;;;;;;;;;5.00;4.25;;;;;;;;4999714;28;45751;-80
2024/03/18 11:19:57;;;;;;;;;1.50;1.50;;;;;;;;4999838;28;45221;-80
2024/03/18 11:22:22;;;;;;;;;5.75;5.50;;;;;;;;4999904;28;45356;-81
2024/03/18 11:24:50;;;;;;;;;4.00;3.00;;;;;;;;4999744;28;45312;-80
2024/03/18 11:27:16;;;;;;;;;7.00;4.25;;;;;;;;4999436;28;45442;-81
2024/03/18 11:29:43;;;;;;;;;3.00;2.75;;;;;;;;4999600;28;45281;-82
2024/03/18 11:32:09;;;;;;;;;3.00;3.00;;;;;;;;4986861;28;45473;-81
2024/03/18 11:34:37;;;;;;;;;2.50;2.00;;;;;;;;5013773;28;45433;-81
2024/03/18 11:37:04;;;;;;;;;2.00;2.00;;;;;;;;5010135;28;45412;-82
2024/03/18 11:39:30;;;;;;;;;2.00;2.00;;;;;;;;4999778;28;46214;-83
2024/03/18 11:41:59;;;;;;;;;4.00;2.75;;;;;;;;5007522;28;45295;-82
2024/03/18 11:44:24;;;;;;;;;1.75;1.75;;;;;;;;4981530;28;47207;-80
2024/03/18 11:46:59;;;;;;;;;2.00;2.00;;;;;;;;4999770;28;45502;-79
2024/03/18 11:49:24;;;;;;;;;2.25;2.25;;;;;;;;4996332;28;45336;-80
2024/03/18 11:51:50;;;;;;;;;3.00;3.00;;;;;;;;4998907;28;45340;-79
2024/03/18 11:54:15;;;;;;;;;2.00;2.00;;;;;;;;5000317;28;45238;-78
2024/03/18 11:56:40;;;;;;;;;4.00;2.25;;;;;;;;5004256;28;45501;-77
2024/03/18 11:59:09;;;;;;;;;1.00;0.00;;;;;;;;5004046;28;45277;-77
2024/03/18 12:01:35;;;;;;;;;3.00;1.50;;;;;;;;5002490;28;45498;-78
2024/03/18 12:04:01;;;;;;;;;0.75;0.75;;;;;;;;5002185;28;45562;-77
2024/03/18 12:06:26;;;;;;;;;2.25;1.00;;;;;;;;5002539;28;45238;-78
2024/03/18 12:08:51;;;;;;;;;1.25;1.00;;;;;;;;4984382;28;45417;-77
2024/03/18 12:11:17;;;;;;;;;1.00;1.00;;;;;;;;5002335;28;45312;-77
2024/03/18 12:13:42;;;;;;;;;1.25;0.50;;;;;;;;5001815;28;45545;-78
2024/03/18 12:16:11;;;;;;;;;0.50;0.50;;;;;;;;5002313;28;46177;-77
2024/03/18 12:18:36;;;;;;;;;1.00;1.00;;;;;;;;5001830;28;45422;-78
2024/03/18 12:21:02;;;;;;;;;0.00;0.00;;;;;;;;4984555;28;45275;-77
2024/03/18 12:28:59;;;;;;;;;3.00;3.00;;;;;;;;5000835;28;45618;-77
2024/03/18 12:31:27;;;;;;;;;3.00;3.00;;;;;;;;4983173;28;45378;-76
2024/03/18 12:33:53;;;;;;;;;2.00;2.00;;;;;;;;4984010;28;47320;-77
2024/03/18 12:36:19;;;;;;;;;2.00;2.00;;;;;;;;5001647;28;45315;-78
2024/03/18 12:38:47;;;;;;;;;2.50;2.50;;;;;;;;4984227;28;45620;-78
2024/03/18 12:41:16;;;;;;;;;2.75;2.75;;;;;;;;5001204;28;45389;-78
2024/03/18 12:43:42;;;;;;;;;3.00;3.00;;;;;;;;5001442;28;45259;-77
2024/03/18 12:46:07;;;;;;;;;2.00;2.00;;;;;;;;5001983;28;45962;-77
2024/03/18 12:48:33;;;;;;;;;2.25;2.00;;;;;;;;5001459;28;45313;-76
2024/03/18 12:50:58;;;;;;;;;4.00;2.00;;;;;;;;5002112;28;45227;-76
2024/03/18 12:53:23;;;;;;;;;2.00;2.00;;;;;;;;5001512;28;45371;-77
2024/03/18 12:55:48;;;;;;;;;2.00;2.00;;;;;;;;5001443;28;45339;-76
2024/03/18 12:58:18;;;;;;;;;2.50;2.50;;;;;;;;5015960;28;45216;-73
2024/03/18 13:00:43;;;;;;;;;4.00;3.00;;;;;;;;5014183;28;45364;-75
2024/03/18 13:03:12;;;;;;;;;0.00;0.00;;;;;;;;5000735;28;45275;-75
2024/03/18 13:05:37;;;;;;;;;2.00;1.00;;;;;;;;4981696;28;48448;-74
2024/03/18 13:08:04;;;;;;;;;2.25;2.25;;;;;;;;4982945;28;45527;-74
2024/03/18 13:10:29;;;;;;;;;2.50;2.25;;;;;;;;4998307;28;45662;-75
2024/03/18 13:12:54;;;;;;;;;2.25;1.25;;;;;;;;5003733;28;45531;-74
2024/03/18 13:15:22;;;;;;;;;2.00;2.00;;;;;;;;4997264;28;47404;-75
2024/03/18 13:17:47;;;;;;;;;3.50;3.50;;;;;;;;4982896;28;45469;-75
2024/03/18 13:20:16;;;;;;;;;3.00;2.25;;;;;;;;5000351;28;45500;-76
2024/03/18 13:22:42;;;;;;;;;2.50;2.00;;;;;;;;4997533;28;45292;-75
2024/03/18 13:25:09;;;;;;;;;2.00;2.00;;;;;;;;5000224;28;45329;-76
2024/03/18 13:27:34;;;;;;;;;3.00;2.75;;;;;;;;4997742;28;45656;-75
2024/03/18 13:29:59;;;;;;;;;5.50;2.50;;;;;;;;5000112;28;45369;-75
2024/03/18 13:32:25;;;;;;;;;2.25;2.00;;;;;;;;4999766;28;45403;-75
2024/03/18 13:34:52;;;;;;;;;3.25;3.25;;;;;;;;4999736;28;46073;-75
2024/03/18 13:37:18;;;;;;;;;2.75;2.50;;;;;;;;5000481;28;45495;-75
2024/03/18 13:39:45;;;;;;;;;4.00;3.00;;;;;;;;5000483;28;45738;-75
2024/03/18 13:42:15;;;;;;;;;3.00;3.00;;;;;;;;4982820;28;47281;-74
2024/03/18 13:44:41;;;;;;;;;4.25;2.75;;;;;;;;5000555;28;45257;-76
2024/03/18 13:47:07;;;;;;;;;2.50;2.50;;;;;;;;5000668;28;45313;-75
2024/03/18 13:49:33;;;;;;;;;5.00;4.75;;;;;;;;4982646;28;45356;-76
2024/03/18 13:51:58;;;;;;;;;4.50;3.00;;;;;;;;4999668;28;45563;-74
2024/03/18 13:54:24;;;;;;;;;4.00;4.00;;;;;;;;4999685;28;45978;-74
2024/03/18 13:56:49;;;;;;;;;5.00;3.25;;;;;;;;4982124;28;45433;-75
2024/03/18 13:59:14;;;;;;;;;3.25;3.25;;;;;;;;5000769;28;45417;-75
2024/03/18 14:01:39;;;;;;;;;4.75;3.75;;;;;;;;5000696;28;45344;-75
2024/03/18 14:04:04;;;;;;;;;3.00;3.00;;;;;;;;5000605;28;45386;-76
2024/03/18 14:06:29;;;;;;;;;3.50;3.00;;;;;;;;5000433;28;45366;-76
2024/03/18 14:08:54;;;;;;;;;4.75;3.75;;;;;;;;5000555;28;45547;-76
2024/03/18 14:11:21;;;;;;;;;2.50;2.50;;;;;;;;5000343;28;45358;-76
2024/03/18 14:13:46;;;;;;;;;5.50;4.25;;;;;;;;5000104;28;45441;-75
2024/03/18 14:16:13;;;;;;;;;3.75;3.00;;;;;;;;5000133;28;45253;-75
2024/03/18 14:18:38;;;;;;;;;4.00;4.00;;;;;;;;4999392;28;45547;-75
2024/03/18 14:21:03;;;;;;;;;3.50;3.50;;;;;;;;4999682;28;45555;-77
2024/03/18 14:23:29;;;;;;;;;3.00;3.00;;;;;;;;5000013;28;46701;-76
2024/03/18 14:25:54;;;;;;;;;4.00;4.00;;;;;;;;4982336;28;45334;-74